Omskiy-141 — UGZK — position and weather

sailwx.info

Track history (hours):
 
Tides and Currents Weather Stations Pressure Air Temp Water Temp Dewpoint Dewpoint Depression Visibility Wind Speed Wind Dir Waves Ship Positions

Omskiy-141

Last reported at 2017-Jul-19 04:18 UTC. Time now 2017-Jul-21 22:52 UTC.
Position N 59°47' E 030°44'.

Length 108 m; draft 2.6 m.

Type: Cargo ship. MMSI: 273310600.

Date/timePositionNaut miles runAvg speedWind from/ knotsBaromVisibWave heightAir tempDewpointWater temp
2017-Jul-19 04:18N 59°47' E 030°44'2 2.9
2017-Jul-19 03:27N 59°47' E 030°40'1 3.0
2017-Jul-19 03:00N 59°48' E 030°37'3 5.2
2017-Jul-19 02:30N 59°50' E 030°34'2 4.9
2017-Jul-19 02:00N 59°51' E 030°30'3 5.2
2017-Jul-19 01:30N 59°53' E 030°27'2 4.2
2017-Jul-19 01:00N 59°55' E 030°24'1 1.6
2017-Jul-19 00:30N 59°56' E 030°24'0 0.0
2017-Jul-19 00:00N 59°56' E 030°24'1 3.0
2017-Jul-18 23:30N 59°57' E 030°24'3 5.4
2017-Jul-18 23:00N 59°57' E 030°19'2 5.0
2017-Jul-18 22:30N 59°55' E 030°15'2 3.4
2017-Jul-18 22:00N 59°54' E 030°13'0 0.0
2017-Jul-18 21:28N 59°54' E 030°13'0 0.0
2017-Jul-18 20:58N 59°54' E 030°13'0 0.0
2017-Jul-18 20:28N 59°54' E 030°13'0 0.0
2017-Jul-18 19:58N 59°54' E 030°13'0 0.0
2017-Jul-18 19:28N 59°54' E 030°13'0 0.0
2017-Jul-18 18:58N 59°54' E 030°13'0 0.0
2017-Jul-18 18:28N 59°54' E 030°13'0 0.0
2017-Jul-18 17:58N 59°54' E 030°13'0 0.0
2017-Jul-18 17:28N 59°54' E 030°13'0 0.0
2017-Jul-18 16:58N 59°54' E 030°13'0 0.0
2017-Jul-18 16:28N 59°54' E 030°13'0 0.0
2017-Jul-18 15:58N 59°54' E 030°13'0 0.0
2017-Jul-18 15:25N 59°54' E 030°13'0 0.0
2017-Jul-18 14:55N 59°54' E 030°13'0 0.0
2017-Jul-18 13:58N 59°54' E 030°13'0 0.0
2017-Jul-18 13:28N 59°54' E 030°13'0 0.0
2017-Jul-18 12:58N 59°54' E 030°13'0 0.0
2017-Jul-18 12:28N 59°54' E 030°13'0 0.0
2017-Jul-18 11:58N 59°54' E 030°13'0 0.0
2017-Jul-18 11:28N 59°54' E 030°13'0 0.0
2017-Jul-18 10:58N 59°54' E 030°13'0 0.0
2017-Jul-18 10:25N 59°54' E 030°13'0 0.0
2017-Jul-18 09:58N 59°54' E 030°13'0 0.0
2017-Jul-18 09:28N 59°54' E 030°13'0 0.0
2017-Jul-18 08:58N 59°54' E 030°13'0 0.0
2017-Jul-18 08:28N 59°54' E 030°13'0 0.0
2017-Jul-18 07:58N 59°54' E 030°13'0 0.0
2017-Jul-18 07:31N 59°54' E 030°13'6 6.4
2017-Jul-18 06:37N 59°55' E 030°02'1 8.8
2017-Jul-18 06:31N 59°55' E 029°60'4 8.7
2017-Jul-18 06:00N 59°57' E 029°52'25 1.9
2017-Jul-17 16:56N 60°02' E 029°03'4 9.1
2017-Jul-17 16:27N 60°02' E 028°55'4 8.8
2017-Jul-17 16:00N 60°02' E 028°47'4 8.7
2017-Jul-17 15:30N 60°02' E 028°38'4 8.5
2017-Jul-17 15:00N 60°02' E 028°30'4 8.1
2017-Jul-17 14:30N 60°04' E 028°22'4 8.0
2017-Jul-17 14:01N 60°07' E 028°16'4 7.9
2017-Jul-17 13:30N 60°08' E 028°09'4 8.1
2017-Jul-17 13:01N 60°09' E 028°01'4 8.1
2017-Jul-17 12:30N 60°10' E 027°53'4 7.6
2017-Jul-17 12:00N 60°10' E 027°45'4 8.1
2017-Jul-17 11:30N 60°08' E 027°38'4 8.1
2017-Jul-17 11:00N 60°06' E 027°31'4 8.2
2017-Jul-17 10:30N 60°04' E 027°24'4 8.4
2017-Jul-17 10:00N 60°02' E 027°17'4 8.5
2017-Jul-17 09:30N 59°59' E 027°10'4 8.3
2017-Jul-17 09:00N 59°58' E 027°02'4 8.2
2017-Jul-17 08:30N 59°58' E 026°54'4 8.3
2017-Jul-17 08:00N 59°59' E 026°46'4 8.1
2017-Jul-17 07:30N 59°59' E 026°38'4 8.5
2017-Jul-17 07:01N 59°58' E 026°30'4 8.5
2017-Jul-17 06:30N 59°57' E 026°22'4 8.4
2017-Jul-17 06:00N 59°56' E 026°14'4 8.5
2017-Jul-17 05:30N 59°55' E 026°06'4 8.4
2017-Jul-17 05:00N 59°53' E 025°57'4 8.3
2017-Jul-17 04:30N 59°52' E 025°49'4 8.3
2017-Jul-17 04:00N 59°51' E 025°41'4 8.3
2017-Jul-17 03:30N 59°50' E 025°33'4 8.3
2017-Jul-17 03:00N 59°49' E 025°25'4 8.4
2017-Jul-17 02:30N 59°48' E 025°17'4 8.0
2017-Jul-17 02:00N 59°47' E 025°10'4 7.9
2017-Jul-17 01:30N 59°47' E 025°02'4 8.0
2017-Jul-17 01:00N 59°46' E 024°54'4 8.1
2017-Jul-17 00:30N 59°45' E 024°46'4 8.0
2017-Jul-17 00:00N 59°44' E 024°38'4 8.1
2017-Jul-16 23:31N 59°43' E 024°31'4 8.1
2017-Jul-16 23:00N 59°42' E 024°23'4 7.9
2017-Jul-16 22:30N 59°41' E 024°16'4 8.0
2017-Jul-16 22:00N 59°39' E 024°09'4 8.3
2017-Jul-16 21:31N 59°37' E 024°01'4 8.1
2017-Jul-16 21:01N 59°35' E 023°54'5 9.5
2017-Jul-16 20:31N 59°33' E 023°46'4 7.5
2017-Jul-16 20:00N 59°31' E 023°39'4 7.6
2017-Jul-16 19:30N 59°29' E 023°33'4 8.1
2017-Jul-16 19:00N 59°27' E 023°26'5 9.2
2017-Jul-16 18:30N 59°25' E 023°18'4 8.3
2017-Jul-16 18:00N 59°23' E 023°10'4 8.3
2017-Jul-16 17:30N 59°21' E 023°03'4 8.4
2017-Jul-16 17:00N 59°19' E 022°56'4 8.4
2017-Jul-16 16:30N 59°17' E 022°49'5 9.3
2017-Jul-16 16:00N 59°15' E 022°41'4 8.5
2017-Jul-16 15:30N 59°13' E 022°33'4 8.1
2017-Jul-16 15:00N 59°12' E 022°26'4 8.0
2017-Jul-16 14:30N 59°10' E 022°19'5 9.2
2017-Jul-16 14:00N 59°08' E 022°11'4 8.0
2017-Jul-16 13:30N 59°06' E 022°04'4 7.8
2017-Jul-16 13:00N 59°03' E 021°59'4 8.0
2017-Jul-16 12:30N 59°01' E 021°53'5 9.1
2017-Jul-16 12:00N 58°57' E 021°47'4 8.0
2017-Jul-16 11:30N 58°54' E 021°43'5 9.2
2017-Jul-16 11:00N 58°50' E 021°37'4 8.4
2017-Jul-16 10:31N 58°47' E 021°32'4 8.4
2017-Jul-16 10:00N 58°44' E 021°28'4 8.2
2017-Jul-16 09:29N 58°40' E 021°23'4 8.1
2017-Jul-16 09:00N 58°37' E 021°18'4 7.7
2017-Jul-16 08:30N 58°34' E 021°14'5 9.2
2017-Jul-16 08:00N 58°30' E 021°08'4 8.1
2017-Jul-16 07:30N 58°27' E 021°04'4 7.9
2017-Jul-16 07:00N 58°24' E 020°59'4 7.8
2017-Jul-16 06:30N 58°21' E 020°55'4 8.1
2017-Jul-16 06:00N 58°17' E 020°51'4 8.4
2017-Jul-16 05:30N 58°14' E 020°46'4 8.0
2017-Jul-16 05:00N 58°11' E 020°41'4 8.1
2017-Jul-16 04:30N 58°08' E 020°36'4 8.2
2017-Jul-16 04:00N 58°05' E 020°31'4 8.2
2017-Jul-16 03:30N 58°02' E 020°26'4 8.6
2017-Jul-16 02:59N 57°58' E 020°21'4 8.2
2017-Jul-16 02:30N 57°55' E 020°16'4 8.9
2017-Jul-16 02:00N 57°52' E 020°11'4 7.5
2017-Jul-16 01:30N 57°49' E 020°06'4 7.2
2017-Jul-16 00:59N 57°46' E 020°02'4 8.8
2017-Jul-16 00:30N 57°42' E 019°57'4 7.9
2017-Jul-16 00:00N 57°39' E 019°52'4 7.8
2017-Jul-15 23:29N 57°36' E 019°47'4 8.0
2017-Jul-15 23:00N 57°33' E 019°43'4 8.2
2017-Jul-15 22:30N 57°30' E 019°38'5 9.7
2017-Jul-15 22:00N 57°26' E 019°32'5 9.7
2017-Jul-15 21:28N 57°22' E 019°26'811.0
2017-Jul-15 20:43N 57°16' E 019°16'2 7.8
2017-Jul-15 20:25N 57°14' E 019°14'63 8.2
2017-Jul-15 12:50N 56°30' E 017°53'9 8.1
2017-Jul-15 11:45N 56°24' E 017°41'2 8.3
2017-Jul-15 11:31N 56°23' E 017°39'24 8.0
2017-Jul-15 08:34N 56°06' E 017°08'19 8.2
2017-Jul-15 06:16N 55°52' E 016°47'9 8.4
2017-Jul-15 05:13N 55°45' E 016°38'2 8.6
2017-Jul-15 05:01N 55°43' E 016°36'7 8.7
2017-Jul-15 04:09N 55°37' E 016°28'3 8.8
2017-Jul-15 03:50N 55°35' E 016°25'4 8.8
2017-Jul-15 03:26N 55°32' E 016°21'4 8.8
2017-Jul-15 03:00N 55°29' E 016°16'4 8.8
2017-Jul-15 02:30N 55°26' E 016°12'5 8.6
2017-Jul-15 01:55N 55°22' E 016°06'4 8.5
2017-Jul-15 01:25N 55°19' E 016°02'3 8.3
2017-Jul-15 01:01N 55°16' E 015°58'4 8.3
2017-Jul-15 00:31N 55°13' E 015°53'4 8.4
2017-Jul-15 00:00N 55°09' E 015°49'97 7.8
2017-Jul-14 11:36N 53°46' E 014°23'1 8.9
2017-Jul-14 11:30N 53°46' E 014°24'4 8.7
2017-Jul-14 11:00N 53°42' E 014°29'4 8.9
2017-Jul-14 10:30N 53°39' E 014°33'  
2017-Jul-10 13:19N 53°35' E 014°35'2 7.5
2017-Jul-10 13:00N 53°38' E 014°35'4 8.2
2017-Jul-10 12:30N 53°41' E 014°31'4 8.3
2017-Jul-10 12:00N 53°44' E 014°26'4 8.5
2017-Jul-10 11:30N 53°48' E 014°22'4 8.6
2017-Jul-10 10:59N 53°51' E 014°17'4 7.3
2017-Jul-10 10:30N 53°55' E 014°16'4 6.0
2017-Jul-10 09:51N 53°58' E 014°17'  
Track history (hours):
 
Tides and Currents Weather Stations Pressure Air Temp Water Temp Dewpoint Dewpoint Depression Visibility Wind Speed Wind Dir Waves Ship Positions

Omskiy-141

Last reported at 2017-Jul-19 04:18 UTC. Time now 2017-Jul-21 22:52 UTC.
Position N 59°47' E 030°44'.

Length 108 m; draft 2.6 m.

Type: Cargo ship. MMSI: 273310600.

Date/timePositionNaut miles runAvg speedWind from/ knotsBaromVisibWave heightAir tempDewpointWater temp
2017-Jul-19 04:18N 59°47' E 030°44'2 2.9
2017-Jul-19 03:27N 59°47' E 030°40'1 3.0
2017-Jul-19 03:00N 59°48' E 030°37'3 5.2
2017-Jul-19 02:30N 59°50' E 030°34'2 4.9
2017-Jul-19 02:00N 59°51' E 030°30'3 5.2
2017-Jul-19 01:30N 59°53' E 030°27'2 4.2
2017-Jul-19 01:00N 59°55' E 030°24'1 1.6
2017-Jul-19 00:30N 59°56' E 030°24'0 0.0
2017-Jul-19 00:00N 59°56' E 030°24'1 3.0
2017-Jul-18 23:30N 59°57' E 030°24'3 5.4
2017-Jul-18 23:00N 59°57' E 030°19'2 5.0
2017-Jul-18 22:30N 59°55' E 030°15'2 3.4
2017-Jul-18 22:00N 59°54' E 030°13'0 0.0
2017-Jul-18 21:28N 59°54' E 030°13'0 0.0
2017-Jul-18 20:58N 59°54' E 030°13'0 0.0
2017-Jul-18 20:28N 59°54' E 030°13'0 0.0
2017-Jul-18 19:58N 59°54' E 030°13'0 0.0
2017-Jul-18 19:28N 59°54' E 030°13'0 0.0
2017-Jul-18 18:58N 59°54' E 030°13'0 0.0
2017-Jul-18 18:28N 59°54' E 030°13'0 0.0
2017-Jul-18 17:58N 59°54' E 030°13'0 0.0
2017-Jul-18 17:28N 59°54' E 030°13'0 0.0
2017-Jul-18 16:58N 59°54' E 030°13'0 0.0
2017-Jul-18 16:28N 59°54' E 030°13'0 0.0
2017-Jul-18 15:58N 59°54' E 030°13'0 0.0
2017-Jul-18 15:25N 59°54' E 030°13'0 0.0
2017-Jul-18 14:55N 59°54' E 030°13'0 0.0
2017-Jul-18 13:58N 59°54' E 030°13'0 0.0
2017-Jul-18 13:28N 59°54' E 030°13'0 0.0
2017-Jul-18 12:58N 59°54' E 030°13'0 0.0
2017-Jul-18 12:28N 59°54' E 030°13'0 0.0
2017-Jul-18 11:58N 59°54' E 030°13'0 0.0
2017-Jul-18 11:28N 59°54' E 030°13'0 0.0
2017-Jul-18 10:58N 59°54' E 030°13'0 0.0
2017-Jul-18 10:25N 59°54' E 030°13'0 0.0
2017-Jul-18 09:58N 59°54' E 030°13'0 0.0
2017-Jul-18 09:28N 59°54' E 030°13'0 0.0
2017-Jul-18 08:58N 59°54' E 030°13'0 0.0
2017-Jul-18 08:28N 59°54' E 030°13'0 0.0
2017-Jul-18 07:58N 59°54' E 030°13'0 0.0
2017-Jul-18 07:31N 59°54' E 030°13'6 6.4
2017-Jul-18 06:37N 59°55' E 030°02'1 8.8
2017-Jul-18 06:31N 59°55' E 029°60'4 8.7
2017-Jul-18 06:00N 59°57' E 029°52'25 1.9
2017-Jul-17 16:56N 60°02' E 029°03'4 9.1
2017-Jul-17 16:27N 60°02' E 028°55'4 8.8
2017-Jul-17 16:00N 60°02' E 028°47'4 8.7
2017-Jul-17 15:30N 60°02' E 028°38'4 8.5
2017-Jul-17 15:00N 60°02' E 028°30'4 8.1
2017-Jul-17 14:30N 60°04' E 028°22'4 8.0
2017-Jul-17 14:01N 60°07' E 028°16'4 7.9
2017-Jul-17 13:30N 60°08' E 028°09'4 8.1
2017-Jul-17 13:01N 60°09' E 028°01'4 8.1
2017-Jul-17 12:30N 60°10' E 027°53'4 7.6
2017-Jul-17 12:00N 60°10' E 027°45'4 8.1
2017-Jul-17 11:30N 60°08' E 027°38'4 8.1
2017-Jul-17 11:00N 60°06' E 027°31'4 8.2
2017-Jul-17 10:30N 60°04' E 027°24'4 8.4
2017-Jul-17 10:00N 60°02' E 027°17'4 8.5
2017-Jul-17 09:30N 59°59' E 027°10'4 8.3
2017-Jul-17 09:00N 59°58' E 027°02'4 8.2
2017-Jul-17 08:30N 59°58' E 026°54'4 8.3
2017-Jul-17 08:00N 59°59' E 026°46'4 8.1
2017-Jul-17 07:30N 59°59' E 026°38'4 8.5
2017-Jul-17 07:01N 59°58' E 026°30'4 8.5
2017-Jul-17 06:30N 59°57' E 026°22'4 8.4
2017-Jul-17 06:00N 59°56' E 026°14'4 8.5
2017-Jul-17 05:30N 59°55' E 026°06'4 8.4
2017-Jul-17 05:00N 59°53' E 025°57'4 8.3
2017-Jul-17 04:30N 59°52' E 025°49'4 8.3
2017-Jul-17 04:00N 59°51' E 025°41'4 8.3
2017-Jul-17 03:30N 59°50' E 025°33'4 8.3
2017-Jul-17 03:00N 59°49' E 025°25'4 8.4
2017-Jul-17 02:30N 59°48' E 025°17'4 8.0
2017-Jul-17 02:00N 59°47' E 025°10'4 7.9
2017-Jul-17 01:30N 59°47' E 025°02'4 8.0
2017-Jul-17 01:00N 59°46' E 024°54'4 8.1
2017-Jul-17 00:30N 59°45' E 024°46'4 8.0
2017-Jul-17 00:00N 59°44' E 024°38'4 8.1
2017-Jul-16 23:31N 59°43' E 024°31'4 8.1
2017-Jul-16 23:00N 59°42' E 024°23'4 7.9
2017-Jul-16 22:30N 59°41' E 024°16'4 8.0
2017-Jul-16 22:00N 59°39' E 024°09'4 8.3
2017-Jul-16 21:31N 59°37' E 024°01'4 8.1
2017-Jul-16 21:01N 59°35' E 023°54'5 9.5
2017-Jul-16 20:31N 59°33' E 023°46'4 7.5
2017-Jul-16 20:00N 59°31' E 023°39'4 7.6
2017-Jul-16 19:30N 59°29' E 023°33'4 8.1
2017-Jul-16 19:00N 59°27' E 023°26'5 9.2
2017-Jul-16 18:30N 59°25' E 023°18'4 8.3
2017-Jul-16 18:00N 59°23' E 023°10'4 8.3
2017-Jul-16 17:30N 59°21' E 023°03'4 8.4
2017-Jul-16 17:00N 59°19' E 022°56'4 8.4
2017-Jul-16 16:30N 59°17' E 022°49'5 9.3
2017-Jul-16 16:00N 59°15' E 022°41'4 8.5
2017-Jul-16 15:30N 59°13' E 022°33'4 8.1
2017-Jul-16 15:00N 59°12' E 022°26'4 8.0
2017-Jul-16 14:30N 59°10' E 022°19'5 9.2
2017-Jul-16 14:00N 59°08' E 022°11'4 8.0
2017-Jul-16 13:30N 59°06' E 022°04'4 7.8
2017-Jul-16 13:00N 59°03' E 021°59'4 8.0
2017-Jul-16 12:30N 59°01' E 021°53'5 9.1
2017-Jul-16 12:00N 58°57' E 021°47'4 8.0
2017-Jul-16 11:30N 58°54' E 021°43'5 9.2
2017-Jul-16 11:00N 58°50' E 021°37'4 8.4
2017-Jul-16 10:31N 58°47' E 021°32'4 8.4
2017-Jul-16 10:00N 58°44' E 021°28'4 8.2
2017-Jul-16 09:29N 58°40' E 021°23'4 8.1
2017-Jul-16 09:00N 58°37' E 021°18'4 7.7
2017-Jul-16 08:30N 58°34' E 021°14'5 9.2
2017-Jul-16 08:00N 58°30' E 021°08'4 8.1
2017-Jul-16 07:30N 58°27' E 021°04'4 7.9
2017-Jul-16 07:00N 58°24' E 020°59'4 7.8
2017-Jul-16 06:30N 58°21' E 020°55'4 8.1
2017-Jul-16 06:00N 58°17' E 020°51'4 8.4
2017-Jul-16 05:30N 58°14' E 020°46'4 8.0
2017-Jul-16 05:00N 58°11' E 020°41'4 8.1
2017-Jul-16 04:30N 58°08' E 020°36'4 8.2
2017-Jul-16 04:00N 58°05' E 020°31'4 8.2
2017-Jul-16 03:30N 58°02' E 020°26'4 8.6
2017-Jul-16 02:59N 57°58' E 020°21'4 8.2
2017-Jul-16 02:30N 57°55' E 020°16'4 8.9
2017-Jul-16 02:00N 57°52' E 020°11'4 7.5
2017-Jul-16 01:30N 57°49' E 020°06'4 7.2
2017-Jul-16 00:59N 57°46' E 020°02'4 8.8
2017-Jul-16 00:30N 57°42' E 019°57'4 7.9
2017-Jul-16 00:00N 57°39' E 019°52'4 7.8
2017-Jul-15 23:29N 57°36' E 019°47'4 8.0
2017-Jul-15 23:00N 57°33' E 019°43'4 8.2
2017-Jul-15 22:30N 57°30' E 019°38'5 9.7
2017-Jul-15 22:00N 57°26' E 019°32'5 9.7
2017-Jul-15 21:28N 57°22' E 019°26'811.0
2017-Jul-15 20:43N 57°16' E 019°16'2 7.8
2017-Jul-15 20:25N 57°14' E 019°14'63 8.2
2017-Jul-15 12:50N 56°30' E 017°53'9 8.1
2017-Jul-15 11:45N 56°24' E 017°41'2 8.3
2017-Jul-15 11:31N 56°23' E 017°39'24 8.0
2017-Jul-15 08:34N 56°06' E 017°08'19 8.2
2017-Jul-15 06:16N 55°52' E 016°47'9 8.4
2017-Jul-15 05:13N 55°45' E 016°38'2 8.6
2017-Jul-15 05:01N 55°43' E 016°36'7 8.7
2017-Jul-15 04:09N 55°37' E 016°28'3 8.8
2017-Jul-15 03:50N 55°35' E 016°25'4 8.8
2017-Jul-15 03:26N 55°32' E 016°21'4 8.8
2017-Jul-15 03:00N 55°29' E 016°16'4 8.8
2017-Jul-15 02:30N 55°26' E 016°12'5 8.6
2017-Jul-15 01:55N 55°22' E 016°06'4 8.5
2017-Jul-15 01:25N 55°19' E 016°02'3 8.3
2017-Jul-15 01:01N 55°16' E 015°58'4 8.3
2017-Jul-15 00:31N 55°13' E 015°53'4 8.4
2017-Jul-15 00:00N 55°09' E 015°49'97 7.8
2017-Jul-14 11:36N 53°46' E 014°23'1 8.9
2017-Jul-14 11:30N 53°46' E 014°24'4 8.7
2017-Jul-14 11:00N 53°42' E 014°29'4 8.9
2017-Jul-14 10:30N 53°39' E 014°33'  
2017-Jul-10 13:19N 53°35' E 014°35'2 7.5
2017-Jul-10 13:00N 53°38' E 014°35'4 8.2
2017-Jul-10 12:30N 53°41' E 014°31'4 8.3
2017-Jul-10 12:00N 53°44' E 014°26'4 8.5
2017-Jul-10 11:30N 53°48' E 014°22'4 8.6
2017-Jul-10 10:59N 53°51' E 014°17'4 7.3
2017-Jul-10 10:30N 53°55' E 014°16'4 6.0
2017-Jul-10 09:51N 53°58' E 014°17'  

Dump ship's entire track history